createdAt,value
2017-09-30T00:01:00.098Z,973.97
2017-09-30T00:02:00.205Z,973.97
2017-09-30T00:03:00.313Z,973.97
2017-09-30T00:03:59.816Z,973.96
2017-09-30T00:04:59.906Z,973.95
2017-09-30T00:06:00.066Z,973.91
2017-09-30T00:07:00.412Z,973.93
2017-09-30T00:08:00.072Z,973.91
2017-09-30T00:09:00.439Z,973.88
2017-09-30T00:10:00.290Z,973.88
2017-09-30T00:11:00.154Z,973.89
2017-09-30T00:12:00.263Z,973.85
2017-09-30T00:13:00.767Z,973.84
2017-09-30T00:14:00.883Z,973.84
2017-09-30T00:15:00.531Z,973.84
2017-09-30T00:16:00.637Z,973.80
2017-09-30T00:17:00.829Z,973.77
2017-09-30T00:18:00.939Z,973.79
2017-09-30T00:19:01.079Z,973.78
2017-09-30T00:20:00.388Z,973.76
2017-09-30T00:21:00.596Z,973.74
2017-09-30T00:22:00.747Z,973.71
2017-09-30T00:23:01.124Z,973.74
2017-09-30T00:24:01.012Z,973.74
2017-09-30T00:25:01.301Z,973.73
2017-09-30T00:26:01.304Z,973.72
2017-09-30T00:27:01.412Z,973.72
2017-09-30T00:28:01.364Z,973.72
2017-09-30T00:29:01.270Z,973.67
2017-09-30T00:30:01.512Z,973.67
2017-09-30T00:31:01.199Z,973.67
2017-09-30T00:32:01.336Z,973.68
2017-09-30T00:33:01.734Z,973.68
2017-09-30T00:34:01.522Z,973.69
2017-09-30T00:35:01.656Z,973.67
2017-09-30T00:36:01.800Z,973.71
2017-09-30T00:37:01.850Z,973.70
2017-09-30T00:38:01.878Z,973.71
2017-09-30T00:39:02.041Z,973.72
2017-09-30T00:40:01.918Z,973.70
2017-09-30T00:41:01.874Z,973.72
2017-09-30T00:42:01.877Z,973.71
2017-09-30T00:43:01.819Z,973.66
2017-09-30T00:44:01.910Z,973.66
2017-09-30T00:45:02.359Z,973.63
2017-09-30T00:46:02.358Z,973.59
2017-09-30T00:47:02.444Z,973.61
2017-09-30T00:48:02.053Z,973.60
2017-09-30T00:49:02.403Z,973.66
2017-09-30T00:50:02.401Z,973.63
2017-09-30T00:51:03.094Z,973.62
2017-09-30T00:52:02.295Z,973.67
2017-09-30T00:53:02.612Z,973.66
2017-09-30T00:54:02.669Z,973.63
2017-09-30T00:55:02.380Z,973.66
2017-09-30T00:56:02.623Z,973.66
2017-09-30T00:57:02.325Z,973.68
2017-09-30T00:58:02.497Z,973.61
2017-09-30T00:59:02.317Z,973.64
2017-09-30T01:00:02.579Z,973.68
2017-09-30T01:01:02.535Z,973.64
2017-09-30T01:02:02.999Z,973.62
2017-09-30T01:03:02.881Z,973.64
2017-09-30T01:04:03.136Z,973.60
2017-09-30T01:05:02.916Z,973.63
2017-09-30T01:06:02.642Z,973.59
2017-09-30T01:07:03.422Z,973.53
2017-09-30T01:08:03.249Z,973.56
2017-09-30T01:09:03.505Z,973.53
2017-09-30T01:10:03.135Z,973.46
2017-09-30T01:11:03.139Z,973.46
2017-09-30T01:12:03.876Z,973.48
2017-09-30T01:13:03.225Z,973.47
2017-09-30T01:14:03.694Z,973.46
2017-09-30T01:15:03.422Z,973.41
2017-09-30T01:16:03.858Z,973.43
2017-09-30T01:17:03.841Z,973.38
2017-09-30T01:18:03.498Z,973.40
2017-09-30T01:19:03.724Z,973.40
2017-09-30T01:20:03.907Z,973.41
2017-09-30T01:21:04.080Z,973.38
2017-09-30T01:22:03.738Z,973.39
2017-09-30T01:23:04.548Z,973.39
2017-09-30T01:24:03.628Z,973.37
2017-09-30T01:25:04.109Z,973.38
2017-09-30T01:26:03.819Z,973.36
2017-09-30T01:27:03.683Z,973.35
2017-09-30T01:28:03.851Z,973.33
2017-09-30T01:29:04.264Z,973.32
2017-09-30T01:30:03.844Z,973.33
2017-09-30T01:31:03.869Z,973.32
2017-09-30T01:32:04.090Z,973.29
2017-09-30T01:33:04.306Z,973.28
2017-09-30T01:34:04.233Z,973.27
2017-09-30T01:35:04.030Z,973.26
2017-09-30T01:36:04.413Z,973.29
2017-09-30T01:37:04.261Z,973.25
2017-09-30T01:38:04.785Z,973.27
2017-09-30T01:39:04.267Z,973.28
2017-09-30T01:40:04.470Z,973.27
2017-09-30T01:41:04.590Z,973.29
2017-09-30T01:42:04.746Z,973.23
2017-09-30T01:43:04.703Z,973.23
2017-09-30T01:44:05.078Z,973.25
2017-09-30T01:45:04.806Z,973.20
2017-09-30T01:46:05.168Z,973.20
2017-09-30T01:47:04.775Z,973.16
2017-09-30T01:48:04.859Z,973.14
2017-09-30T01:49:05.260Z,973.16
2017-09-30T01:50:05.090Z,973.14
2017-09-30T01:51:04.795Z,973.12
2017-09-30T01:52:05.017Z,973.12
2017-09-30T01:53:05.140Z,973.12
2017-09-30T01:54:05.455Z,973.13
2017-09-30T01:55:05.006Z,973.10
2017-09-30T01:56:05.044Z,973.09
2017-09-30T01:57:05.276Z,973.04
2017-09-30T01:58:05.318Z,973.05
2017-09-30T01:59:05.772Z,973.06
2017-09-30T02:00:05.578Z,973.06
2017-09-30T02:01:05.598Z,973.06
2017-09-30T02:02:06.141Z,973.06
2017-09-30T02:03:06.151Z,973.06
2017-09-30T02:04:06.186Z,973.02
2017-09-30T02:05:06.219Z,972.98
2017-09-30T02:06:06.242Z,972.97
2017-09-30T02:07:05.818Z,972.93
2017-09-30T02:08:05.885Z,972.88
2017-09-30T02:09:06.305Z,972.87
2017-09-30T02:10:06.486Z,972.83
2017-09-30T02:11:06.396Z,972.84
2017-09-30T02:12:06.038Z,972.85
2017-09-30T02:13:06.032Z,972.85
2017-09-30T02:14:06.020Z,972.86
2017-09-30T02:15:06.197Z,972.91
2017-09-30T02:16:06.225Z,972.87
2017-09-30T02:17:06.207Z,972.88
2017-09-30T02:18:06.151Z,972.90
2017-09-30T02:19:06.211Z,972.92
2017-09-30T02:20:06.485Z,972.90
2017-09-30T02:21:06.394Z,972.90
2017-09-30T02:22:06.390Z,972.88
2017-09-30T02:23:06.281Z,972.88
2017-09-30T02:24:06.952Z,972.89
2017-09-30T02:25:06.798Z,972.89
2017-09-30T02:26:06.765Z,972.84
2017-09-30T02:27:06.613Z,972.88
2017-09-30T02:28:06.658Z,972.89
2017-09-30T02:29:06.977Z,972.86
2017-09-30T02:30:07.389Z,972.87
2017-09-30T02:31:07.184Z,972.88
2017-09-30T02:32:06.802Z,972.84
2017-09-30T02:33:06.947Z,972.87
2017-09-30T02:34:06.940Z,972.85
2017-09-30T02:35:07.109Z,972.85
2017-09-30T02:36:07.617Z,972.87
2017-09-30T02:37:07.258Z,972.85
2017-09-30T02:38:07.212Z,972.86
2017-09-30T02:39:07.254Z,972.87
2017-09-30T02:40:07.493Z,972.89
2017-09-30T02:41:07.383Z,972.89
2017-09-30T02:42:07.568Z,972.87
2017-09-30T02:43:07.337Z,972.88
2017-09-30T02:44:07.732Z,972.89
2017-09-30T02:45:07.543Z,972.92
2017-09-30T02:46:07.457Z,972.90
2017-09-30T02:47:08.102Z,972.93
2017-09-30T02:48:07.752Z,972.92
2017-09-30T02:49:07.683Z,972.96
2017-09-30T02:50:07.721Z,972.92
2017-09-30T02:51:08.345Z,972.88
2017-09-30T02:52:08.469Z,972.85
2017-09-30T02:53:08.034Z,972.86
2017-09-30T02:54:08.041Z,972.87
2017-09-30T02:55:09.488Z,972.84
2017-09-30T02:56:08.246Z,972.81
2017-09-30T02:57:09.352Z,972.83
2017-09-30T02:58:08.415Z,972.79
2017-09-30T02:59:08.248Z,972.85
2017-09-30T03:00:08.771Z,972.82
2017-09-30T03:01:08.916Z,972.82
2017-09-30T03:02:08.883Z,972.82
2017-09-30T03:03:08.848Z,972.85
2017-09-30T03:04:08.908Z,972.82
2017-09-30T03:05:08.811Z,972.78
2017-09-30T03:06:08.882Z,972.82
2017-09-30T03:07:08.856Z,972.80
2017-09-30T03:08:09.176Z,972.74
2017-09-30T03:09:09.074Z,972.76
2017-09-30T03:10:08.983Z,972.75
2017-09-30T03:11:09.419Z,972.75
2017-09-30T03:12:09.064Z,972.75
2017-09-30T03:13:08.763Z,972.74
2017-09-30T03:14:09.136Z,972.76
2017-09-30T03:15:09.124Z,972.78
2017-09-30T03:16:08.970Z,972.82
2017-09-30T03:17:09.442Z,972.78
2017-09-30T03:18:09.166Z,972.76
2017-09-30T03:19:09.271Z,972.77
2017-09-30T03:20:09.170Z,972.75
2017-09-30T03:21:09.253Z,972.75
2017-09-30T03:22:09.216Z,972.74
2017-09-30T03:23:09.413Z,972.75
2017-09-30T03:24:10.021Z,972.81
2017-09-30T03:25:09.604Z,972.82
2017-09-30T03:26:09.505Z,972.82
2017-09-30T03:27:09.734Z,972.83
2017-09-30T03:28:09.710Z,972.86
2017-09-30T03:29:09.926Z,972.85
2017-09-30T03:30:09.764Z,972.83
2017-09-30T03:31:09.930Z,972.83
2017-09-30T03:32:10.217Z,972.81
2017-09-30T03:33:09.917Z,972.79
2017-09-30T03:34:10.093Z,972.79
2017-09-30T03:35:09.833Z,972.81
2017-09-30T03:36:10.141Z,972.81
2017-09-30T03:37:10.106Z,972.82
2017-09-30T03:38:10.349Z,972.89
2017-09-30T03:39:10.658Z,972.81
2017-09-30T03:40:10.262Z,972.84
2017-09-30T03:41:10.145Z,972.77
2017-09-30T03:42:10.175Z,972.72
2017-09-30T03:43:10.638Z,972.69
2017-09-30T03:44:10.346Z,972.68
2017-09-30T03:45:10.792Z,972.67
2017-09-30T03:46:10.651Z,972.67
2017-09-30T03:47:10.584Z,972.62
2017-09-30T03:48:10.511Z,972.62
2017-09-30T03:49:10.502Z,972.60
2017-09-30T03:50:10.834Z,972.58
2017-09-30T03:51:10.833Z,972.57
2017-09-30T03:52:10.896Z,972.54
2017-09-30T03:53:10.935Z,972.56
2017-09-30T03:54:10.977Z,972.54
2017-09-30T03:55:11.469Z,972.56
2017-09-30T03:56:10.924Z,972.51
2017-09-30T03:57:11.077Z,972.52
2017-09-30T03:58:11.487Z,972.51
2017-09-30T03:59:11.167Z,972.51
2017-09-30T04:00:11.405Z,972.48
2017-09-30T04:01:11.173Z,972.50
2017-09-30T04:02:11.387Z,972.51
2017-09-30T04:03:11.826Z,972.54
2017-09-30T04:04:11.510Z,972.54
2017-09-30T04:05:11.554Z,972.59
2017-09-30T04:06:12.087Z,972.60
2017-09-30T04:07:12.013Z,972.65
2017-09-30T04:08:11.246Z,972.65
2017-09-30T04:09:11.292Z,972.63
2017-09-30T04:10:11.342Z,972.66
2017-09-30T04:11:11.455Z,972.69
2017-09-30T04:12:12.023Z,972.63
2017-09-30T04:13:12.141Z,972.67
2017-09-30T04:14:12.080Z,972.65
2017-09-30T04:15:12.399Z,972.64
2017-09-30T04:16:12.746Z,972.63
2017-09-30T04:17:12.459Z,972.63
2017-09-30T04:18:12.566Z,972.61
2017-09-30T04:19:12.745Z,972.63
2017-09-30T04:20:12.241Z,972.65
2017-09-30T04:21:12.668Z,972.60
2017-09-30T04:22:12.382Z,972.62
2017-09-30T04:23:12.906Z,972.63
2017-09-30T04:24:12.639Z,972.67
2017-09-30T04:25:12.999Z,972.69
2017-09-30T04:26:13.072Z,972.71
2017-09-30T04:27:12.718Z,972.69
2017-09-30T04:28:13.158Z,972.71
2017-09-30T04:29:13.183Z,972.74
2017-09-30T04:30:13.224Z,972.76
2017-09-30T04:31:13.197Z,972.75
2017-09-30T04:32:13.188Z,972.75
2017-09-30T04:33:12.912Z,972.71
2017-09-30T04:34:13.475Z,972.68
2017-09-30T04:35:12.933Z,972.67
2017-09-30T04:36:13.516Z,972.68
2017-09-30T04:37:13.506Z,972.66
2017-09-30T04:38:13.849Z,972.69
2017-09-30T04:39:13.684Z,972.70
2017-09-30T04:40:13.376Z,972.69
2017-09-30T04:41:13.449Z,972.63
2017-09-30T04:42:13.796Z,972.65
2017-09-30T04:43:13.874Z,972.64
2017-09-30T04:44:13.817Z,972.65
2017-09-30T04:45:13.495Z,972.66
2017-09-30T04:46:13.545Z,972.60
2017-09-30T04:47:13.941Z,972.60
2017-09-30T04:48:14.163Z,972.60
2017-09-30T04:49:14.084Z,972.52
2017-09-30T04:50:14.071Z,972.51
2017-09-30T04:51:14.080Z,972.51
2017-09-30T04:52:14.172Z,972.54
2017-09-30T04:53:14.269Z,972.56
2017-09-30T04:54:14.094Z,972.57
2017-09-30T04:55:14.466Z,972.55
2017-09-30T04:56:13.872Z,972.58
2017-09-30T04:57:14.326Z,972.58
2017-09-30T04:58:14.335Z,972.60
2017-09-30T04:59:14.355Z,972.61
2017-09-30T05:00:14.286Z,972.61
2017-09-30T05:01:14.414Z,972.62
2017-09-30T05:02:14.737Z,972.63
2017-09-30T05:03:14.543Z,972.63
2017-09-30T05:04:14.502Z,972.63
2017-09-30T05:05:14.568Z,972.63
2017-09-30T05:06:15.136Z,972.65
2017-09-30T05:07:15.238Z,972.65
2017-09-30T05:08:15.044Z,972.66
2017-09-30T05:09:14.393Z,972.69
2017-09-30T05:10:14.663Z,972.66
2017-09-30T05:11:14.585Z,972.67
2017-09-30T05:12:14.726Z,972.68
2017-09-30T05:13:14.836Z,972.65
2017-09-30T05:14:14.844Z,972.64
2017-09-30T05:15:14.886Z,972.61
2017-09-30T05:16:14.850Z,972.62
2017-09-30T05:17:14.926Z,972.60
2017-09-30T05:18:15.357Z,972.61
2017-09-30T05:19:15.149Z,972.57
2017-09-30T05:20:14.950Z,972.55
2017-09-30T05:21:15.121Z,972.55
2017-09-30T05:22:15.476Z,972.49
2017-09-30T05:23:15.417Z,972.53
2017-09-30T05:24:15.693Z,972.46
2017-09-30T05:25:15.537Z,972.49
2017-09-30T05:26:15.287Z,972.46
2017-09-30T05:27:15.348Z,972.45
2017-09-30T05:28:15.370Z,972.47
2017-09-30T05:29:15.742Z,972.40
2017-09-30T05:30:15.510Z,972.45
2017-09-30T05:31:15.605Z,972.46
2017-09-30T05:32:15.779Z,972.43
2017-09-30T05:33:15.770Z,972.41
2017-09-30T05:34:16.189Z,972.41
2017-09-30T05:35:15.981Z,972.45
2017-09-30T05:36:16.057Z,972.40
2017-09-30T05:37:16.492Z,972.37
2017-09-30T05:38:15.705Z,972.43
2017-09-30T05:39:16.385Z,972.42
2017-09-30T05:40:16.325Z,972.41
2017-09-30T05:41:16.258Z,972.51
2017-09-30T05:42:16.603Z,972.59
2017-09-30T05:43:16.849Z,972.60
2017-09-30T05:44:16.870Z,972.63
2017-09-30T05:45:16.795Z,972.65
2017-09-30T05:46:16.488Z,972.63
2017-09-30T05:47:16.917Z,972.63
2017-09-30T05:48:17.038Z,972.58
2017-09-30T05:49:16.679Z,972.54
2017-09-30T05:50:16.989Z,972.52
2017-09-30T05:51:16.772Z,972.51
2017-09-30T05:52:16.856Z,972.44
2017-09-30T05:53:17.239Z,972.47
2017-09-30T05:54:17.297Z,972.51
2017-09-30T05:55:17.259Z,972.53
2017-09-30T05:56:17.310Z,972.56
2017-09-30T05:57:17.357Z,972.56
2017-09-30T05:58:17.399Z,972.50
2017-09-30T05:59:17.771Z,972.47
2017-09-30T06:00:17.562Z,972.49
2017-09-30T06:01:17.266Z,972.47
2017-09-30T06:02:17.673Z,972.43
2017-09-30T06:03:17.653Z,972.44
2017-09-30T06:04:17.841Z,972.48
2017-09-30T06:05:17.869Z,972.55
2017-09-30T06:06:17.788Z,972.59
2017-09-30T06:07:17.877Z,972.61
2017-09-30T06:08:17.452Z,972.56
2017-09-30T06:09:17.737Z,972.55
2017-09-30T06:10:17.466Z,972.53
2017-09-30T06:11:17.929Z,972.52
2017-09-30T06:12:17.650Z,972.53
2017-09-30T06:13:17.662Z,972.52
2017-09-30T06:14:17.689Z,972.59
2017-09-30T06:15:17.641Z,972.55
2017-09-30T06:16:17.932Z,972.53
2017-09-30T06:17:17.713Z,972.47
2017-09-30T06:18:18.515Z,972.46
2017-09-30T06:19:18.183Z,972.43
2017-09-30T06:20:18.187Z,972.39
2017-09-30T06:21:18.609Z,972.39
2017-09-30T06:22:18.089Z,972.41
2017-09-30T06:23:18.217Z,972.39
2017-09-30T06:24:18.241Z,972.38
2017-09-30T06:25:18.161Z,972.43
2017-09-30T06:26:18.507Z,972.45
2017-09-30T06:27:18.383Z,972.49
2017-09-30T06:28:18.306Z,972.51
2017-09-30T06:29:18.374Z,972.47
2017-09-30T06:30:18.656Z,972.45
2017-09-30T06:31:18.884Z,972.45
2017-09-30T06:32:18.900Z,972.51
2017-09-30T06:33:19.011Z,972.47
2017-09-30T06:34:18.552Z,972.55
2017-09-30T06:35:18.640Z,972.61
2017-09-30T06:36:18.664Z,972.67
2017-09-30T06:37:19.388Z,972.66
2017-09-30T06:38:19.409Z,972.62
2017-09-30T06:39:19.079Z,972.61
2017-09-30T06:40:19.256Z,972.55
2017-09-30T06:41:19.066Z,972.51
2017-09-30T06:42:19.180Z,972.48
2017-09-30T06:43:19.385Z,972.48
2017-09-30T06:44:19.747Z,972.50
2017-09-30T06:45:19.569Z,972.49
2017-09-30T06:46:19.178Z,972.49
2017-09-30T06:47:19.727Z,972.46
2017-09-30T06:48:19.380Z,972.49
2017-09-30T06:49:19.699Z,972.50
2017-09-30T06:50:19.346Z,972.52
2017-09-30T06:51:19.664Z,972.51
2017-09-30T06:52:20.168Z,972.54
2017-09-30T06:53:19.621Z,972.55
2017-09-30T06:54:19.751Z,972.55
2017-09-30T06:55:19.641Z,972.53
2017-09-30T06:56:19.643Z,972.54
2017-09-30T06:57:19.962Z,972.47
2017-09-30T06:58:20.446Z,972.45
2017-09-30T06:59:20.368Z,972.42
2017-09-30T07:00:20.152Z,972.43
2017-09-30T07:01:20.316Z,972.39
2017-09-30T07:02:20.191Z,972.43
2017-09-30T07:03:20.727Z,972.40
2017-09-30T07:04:20.095Z,972.42
2017-09-30T07:05:20.316Z,972.35
2017-09-30T07:06:20.360Z,972.32
2017-09-30T07:07:20.381Z,972.33
2017-09-30T07:08:20.663Z,972.31
2017-09-30T07:09:20.276Z,972.30
2017-09-30T07:10:20.918Z,972.26
2017-09-30T07:11:20.580Z,972.24
2017-09-30T07:12:21.019Z,972.20
2017-09-30T07:13:20.889Z,972.23
2017-09-30T07:14:20.997Z,972.19
2017-09-30T07:15:20.900Z,972.20
2017-09-30T07:16:20.663Z,972.18
2017-09-30T07:17:20.763Z,972.18
2017-09-30T07:18:21.181Z,972.17
2017-09-30T07:19:20.981Z,972.19
2017-09-30T07:20:20.908Z,972.21
2017-09-30T07:21:21.064Z,972.24
2017-09-30T07:22:20.949Z,972.27
2017-09-30T07:23:21.144Z,972.30
2017-09-30T07:24:21.462Z,972.32
2017-09-30T07:25:21.414Z,972.30
2017-09-30T07:26:21.125Z,972.28
2017-09-30T07:27:21.469Z,972.25
2017-09-30T07:28:21.246Z,972.20
2017-09-30T07:29:21.654Z,972.20
2017-09-30T07:30:21.686Z,972.24
2017-09-30T07:31:21.629Z,972.24
2017-09-30T07:32:21.578Z,972.28
2017-09-30T07:33:21.545Z,972.26
2017-09-30T07:34:22.519Z,972.32
2017-09-30T07:35:21.913Z,972.32
2017-09-30T07:36:22.395Z,972.28
2017-09-30T07:37:22.029Z,972.30
2017-09-30T07:38:22.244Z,972.30
2017-09-30T07:39:22.358Z,972.28
2017-09-30T07:40:21.927Z,972.29
2017-09-30T07:41:22.988Z,972.31
2017-09-30T07:42:22.712Z,972.33
2017-09-30T07:43:22.314Z,972.31
2017-09-30T07:44:22.267Z,972.31
2017-09-30T07:45:22.690Z,972.31
2017-09-30T07:46:22.284Z,972.26
2017-09-30T07:47:22.754Z,972.28
2017-09-30T07:48:22.645Z,972.31
2017-09-30T07:49:22.748Z,972.30
2017-09-30T07:50:22.932Z,972.29
2017-09-30T07:51:22.652Z,972.30
2017-09-30T07:52:22.851Z,972.26
2017-09-30T07:53:22.897Z,972.29
2017-09-30T07:54:22.998Z,972.22
2017-09-30T07:55:23.825Z,972.25
2017-09-30T07:56:22.424Z,972.28
2017-09-30T07:57:22.477Z,972.29
2017-09-30T07:58:22.523Z,972.29
2017-09-30T07:59:23.434Z,972.27
2017-09-30T08:00:22.742Z,972.27
2017-09-30T08:01:22.745Z,972.30
2017-09-30T08:02:22.837Z,972.28
2017-09-30T08:03:22.825Z,972.29
2017-09-30T08:04:23.691Z,972.30
2017-09-30T08:05:23.038Z,972.27
2017-09-30T08:06:23.440Z,972.31
2017-09-30T08:07:23.394Z,972.28
2017-09-30T08:08:23.030Z,972.24
2017-09-30T08:09:23.914Z,972.26
2017-09-30T08:10:24.067Z,972.26
2017-09-30T08:11:24.251Z,972.29
2017-09-30T08:12:24.025Z,972.31
2017-09-30T08:13:23.852Z,972.32
2017-09-30T08:14:23.774Z,972.33
2017-09-30T08:15:23.992Z,972.33
2017-09-30T08:16:24.172Z,972.32
2017-09-30T08:17:23.922Z,972.34
2017-09-30T08:18:24.090Z,972.33
2017-09-30T08:19:24.402Z,972.28
2017-09-30T08:20:24.631Z,972.27
2017-09-30T08:21:24.469Z,972.25
2017-09-30T08:22:24.283Z,972.27
2017-09-30T08:23:24.252Z,972.28
2017-09-30T08:24:23.845Z,972.25
2017-09-30T08:25:24.274Z,972.30
2017-09-30T08:26:24.638Z,972.34
2017-09-30T08:27:24.253Z,972.36
2017-09-30T08:28:24.162Z,972.35
2017-09-30T08:29:24.095Z,972.40
2017-09-30T08:30:24.510Z,972.37
2017-09-30T08:31:24.771Z,972.37
2017-09-30T08:32:24.249Z,972.35
2017-09-30T08:33:24.708Z,972.39
2017-09-30T08:34:24.914Z,972.39
2017-09-30T08:35:24.399Z,972.35
2017-09-30T08:36:25.657Z,972.37
2017-09-30T08:37:24.836Z,972.37
2017-09-30T08:38:24.555Z,972.37
2017-09-30T08:39:24.604Z,972.38
2017-09-30T08:40:24.657Z,972.38
2017-09-30T08:41:24.707Z,972.37
2017-09-30T08:42:24.826Z,972.37
2017-09-30T08:43:24.812Z,972.36
2017-09-30T08:44:25.288Z,972.34
2017-09-30T08:45:25.461Z,972.41
2017-09-30T08:46:25.484Z,972.38
2017-09-30T08:47:25.802Z,972.40
2017-09-30T08:48:25.596Z,972.33
2017-09-30T08:49:26.043Z,972.38
2017-09-30T08:50:25.656Z,972.41
2017-09-30T08:51:25.676Z,972.44
2017-09-30T08:52:25.354Z,972.44
2017-09-30T08:53:25.332Z,972.39
2017-09-30T08:54:25.594Z,972.41
2017-09-30T08:55:25.443Z,972.42
2017-09-30T08:56:26.193Z,972.39
2017-09-30T08:57:25.632Z,972.35
2017-09-30T08:58:25.785Z,972.33
2017-09-30T08:59:25.953Z,972.34
2017-09-30T09:00:25.823Z,972.32
2017-09-30T09:01:25.766Z,972.32
2017-09-30T09:02:27.044Z,972.34
2017-09-30T09:03:26.424Z,972.33
2017-09-30T09:04:26.684Z,972.30
2017-09-30T09:05:26.860Z,972.29
2017-09-30T09:06:26.521Z,972.28
2017-09-30T09:07:26.611Z,972.27
2017-09-30T09:08:26.804Z,972.24
2017-09-30T09:09:26.885Z,972.24
2017-09-30T09:10:26.269Z,972.24
2017-09-30T09:11:26.915Z,972.24
2017-09-30T09:12:26.948Z,972.21
2017-09-30T09:13:27.521Z,972.17
2017-09-30T09:14:27.057Z,972.19
2017-09-30T09:15:27.479Z,972.18
2017-09-30T09:16:27.449Z,972.17
2017-09-30T09:17:27.270Z,972.16
2017-09-30T09:18:27.890Z,972.16
2017-09-30T09:19:27.046Z,972.19
2017-09-30T09:20:27.753Z,972.14
2017-09-30T09:21:27.330Z,972.13
2017-09-30T09:22:27.499Z,972.11
2017-09-30T09:23:27.329Z,972.10
2017-09-30T09:24:27.092Z,972.09
2017-09-30T09:25:27.064Z,972.11
2017-09-30T09:26:27.283Z,972.05
2017-09-30T09:27:27.747Z,972.07
2017-09-30T09:28:27.392Z,972.07
2017-09-30T09:29:27.281Z,972.06
2017-09-30T09:30:27.335Z,972.08
2017-09-30T09:31:27.389Z,972.01
2017-09-30T09:32:27.984Z,972.03
2017-09-30T09:33:28.219Z,972.05
2017-09-30T09:34:27.551Z,972.04
2017-09-30T09:35:27.923Z,972.06
2017-09-30T09:36:27.826Z,972.05
2017-09-30T09:37:28.692Z,972.08
2017-09-30T09:38:28.641Z,972.06
2017-09-30T09:39:29.114Z,972.06
2017-09-30T09:40:28.690Z,972.06
2017-09-30T09:41:28.857Z,972.04
2017-09-30T09:42:29.606Z,971.99
2017-09-30T09:43:28.498Z,972.04
2017-09-30T09:44:28.639Z,971.96
2017-09-30T09:45:28.536Z,971.98
2017-09-30T09:46:28.836Z,971.93
2017-09-30T09:47:28.933Z,971.91
2017-09-30T09:48:28.882Z,971.90
2017-09-30T09:49:29.147Z,971.88
2017-09-30T09:50:28.917Z,971.88
2017-09-30T09:51:28.959Z,971.86
2017-09-30T09:52:28.706Z,971.86
2017-09-30T09:53:29.118Z,971.84
2017-09-30T09:54:29.128Z,971.87
2017-09-30T09:55:29.538Z,971.80
2017-09-30T09:56:29.182Z,971.79
2017-09-30T09:57:28.923Z,971.81
2017-09-30T09:58:29.334Z,971.78
2017-09-30T09:59:28.972Z,971.76
2017-09-30T10:00:29.631Z,971.72
2017-09-30T10:01:29.648Z,971.72
2017-09-30T10:02:30.045Z,971.70
2017-09-30T10:03:29.905Z,971.66
2017-09-30T10:04:29.949Z,971.63
2017-09-30T10:05:30.219Z,971.66
2017-09-30T10:06:29.643Z,971.64
2017-09-30T10:07:30.282Z,971.64
2017-09-30T10:08:30.319Z,971.58
2017-09-30T10:09:30.371Z,971.60
2017-09-30T10:10:30.421Z,971.57
2017-09-30T10:11:30.166Z,971.60
2017-09-30T10:12:30.426Z,971.55
2017-09-30T10:13:30.434Z,971.58
2017-09-30T10:14:30.525Z,971.51
2017-09-30T10:15:30.749Z,971.55
2017-09-30T10:16:29.840Z,971.52
2017-09-30T10:17:30.943Z,971.50
2017-09-30T10:18:30.129Z,971.46
2017-09-30T10:19:30.929Z,971.53
2017-09-30T10:20:30.989Z,971.50
2017-09-30T10:21:30.110Z,971.49
2017-09-30T10:22:30.690Z,971.46
2017-09-30T10:23:31.149Z,971.48
2017-09-30T10:24:31.095Z,971.48
2017-09-30T10:25:31.251Z,971.51
2017-09-30T10:26:31.022Z,971.46
2017-09-30T10:27:30.729Z,971.46
2017-09-30T10:28:31.417Z,971.48
2017-09-30T10:29:31.373Z,971.46
2017-09-30T10:30:31.391Z,971.46
2017-09-30T10:31:31.438Z,971.46
2017-09-30T10:32:31.512Z,971.46
2017-09-30T10:33:31.693Z,971.47
2017-09-30T10:34:31.403Z,971.42
2017-09-30T10:35:31.508Z,971.39
2017-09-30T10:36:31.780Z,971.37
2017-09-30T10:37:31.469Z,971.33
2017-09-30T10:38:31.921Z,971.33
2017-09-30T10:39:32.039Z,971.33
2017-09-30T10:40:31.840Z,971.28
2017-09-30T10:41:32.240Z,971.30
2017-09-30T10:42:31.930Z,971.30
2017-09-30T10:43:31.841Z,971.31
2017-09-30T10:44:32.096Z,971.29
2017-09-30T10:45:32.036Z,971.29
2017-09-30T10:46:32.432Z,971.32
2017-09-30T10:47:32.037Z,971.32
2017-09-30T10:48:31.818Z,971.31
2017-09-30T10:49:31.653Z,971.29
2017-09-30T10:50:31.716Z,971.28
2017-09-30T10:51:32.602Z,971.26
2017-09-30T10:52:32.410Z,971.27
2017-09-30T10:53:32.729Z,971.20
2017-09-30T10:54:32.991Z,971.20
2017-09-30T10:55:32.391Z,971.16
2017-09-30T10:56:32.857Z,971.16
2017-09-30T10:57:32.596Z,971.13
2017-09-30T10:58:33.127Z,971.13
2017-09-30T10:59:32.538Z,971.12
2017-09-30T11:00:32.787Z,971.12
2017-09-30T11:01:33.042Z,971.09
2017-09-30T11:02:33.593Z,971.06
2017-09-30T11:03:32.439Z,971.05
2017-09-30T11:04:32.496Z,971.08
2017-09-30T11:05:32.977Z,971.09
2017-09-30T11:06:33.463Z,971.05
2017-09-30T11:07:33.611Z,971.02
2017-09-30T11:08:33.668Z,971.01
2017-09-30T11:09:33.392Z,970.97
2017-09-30T11:10:33.322Z,970.97
2017-09-30T11:11:32.888Z,970.96
2017-09-30T11:12:33.848Z,971.00
2017-09-30T11:13:33.547Z,970.92
2017-09-30T11:14:33.055Z,970.95
2017-09-30T11:15:34.003Z,970.97
2017-09-30T11:16:34.296Z,970.90
2017-09-30T11:17:33.787Z,970.91
2017-09-30T11:18:34.080Z,970.91
2017-09-30T11:19:33.779Z,970.91
2017-09-30T11:20:34.332Z,970.91
2017-09-30T11:21:34.084Z,970.86
2017-09-30T11:22:33.501Z,970.82
2017-09-30T11:23:34.361Z,970.83
2017-09-30T11:24:34.480Z,970.83
2017-09-30T11:25:34.518Z,970.85
2017-09-30T11:26:34.604Z,970.83
2017-09-30T11:27:34.662Z,970.77
2017-09-30T11:28:34.565Z,970.73
2017-09-30T11:29:34.808Z,970.72
2017-09-30T11:30:34.739Z,970.68
2017-09-30T11:31:34.747Z,970.67
2017-09-30T11:32:34.643Z,970.70
2017-09-30T11:33:34.984Z,970.62
2017-09-30T11:34:35.155Z,970.64
2017-09-30T11:35:35.158Z,970.64
2017-09-30T11:36:34.814Z,970.54
2017-09-30T11:37:35.104Z,970.58
2017-09-30T11:38:35.143Z,970.54
2017-09-30T11:39:35.296Z,970.55
2017-09-30T11:40:35.082Z,970.55
2017-09-30T11:41:35.490Z,970.49
2017-09-30T11:42:35.568Z,970.43
2017-09-30T11:43:35.853Z,970.42
2017-09-30T11:44:35.641Z,970.44
2017-09-30T11:45:35.682Z,970.42
2017-09-30T11:46:35.469Z,970.47
2017-09-30T11:47:35.428Z,970.46
2017-09-30T11:48:35.708Z,970.39
2017-09-30T11:49:35.922Z,970.36
2017-09-30T11:50:35.865Z,970.36
2017-09-30T11:51:35.514Z,970.35
2017-09-30T11:52:36.091Z,970.34
2017-09-30T11:53:36.013Z,970.33
2017-09-30T11:54:36.020Z,970.35
2017-09-30T11:55:35.852Z,970.33
2017-09-30T11:56:36.303Z,970.39
2017-09-30T11:57:36.233Z,970.29
2017-09-30T11:58:36.434Z,970.35
2017-09-30T11:59:36.248Z,970.28
2017-09-30T12:00:36.430Z,970.29
2017-09-30T12:01:36.182Z,970.23
2017-09-30T12:02:36.501Z,970.21
2017-09-30T12:03:36.509Z,970.15
2017-09-30T12:04:36.614Z,970.11
2017-09-30T12:05:36.805Z,970.12
2017-09-30T12:06:36.338Z,970.13
2017-09-30T12:07:36.207Z,970.10
2017-09-30T12:08:36.848Z,970.06
2017-09-30T12:09:36.353Z,970.07
2017-09-30T12:10:36.960Z,970.04
2017-09-30T12:11:36.802Z,969.97
2017-09-30T12:12:36.454Z,969.98
2017-09-30T12:13:36.718Z,969.97
2017-09-30T12:14:36.916Z,969.90
2017-09-30T12:15:37.278Z,969.97
2017-09-30T12:16:36.623Z,970.06
2017-09-30T12:17:37.350Z,970.00
2017-09-30T12:18:36.736Z,969.97
2017-09-30T12:19:36.828Z,969.93
2017-09-30T12:20:37.113Z,969.93
2017-09-30T12:21:36.959Z,969.99
2017-09-30T12:22:37.501Z,969.95
2017-09-30T12:23:37.039Z,969.93
2017-09-30T12:24:37.089Z,969.98
2017-09-30T12:25:37.443Z,969.92
2017-09-30T12:26:37.442Z,969.94
2017-09-30T12:27:37.518Z,969.95
2017-09-30T12:28:37.623Z,969.98
2017-09-30T12:29:37.659Z,969.94